Time;durP1;ratioP1;P1;durP2;ratioP2;P2;SDS_P1;SDS_P2;PMS_P1;PMS_P2;Temp;Humidity;BMP_temperature;BMP_pressure;BME280_temperature;BME280_humidity;BME280_pressure;Samples;Min_cycle;Max_cycle;Signal;HPM_P1;HPM_P2
2021/12/22 00:01:05;;;;;;;8.18;3.85;;;-12.10;99.90;;;;;;5074056;28;20389;-82
2021/12/22 00:03:33;;;;;;;7.18;3.58;;;-12.00;99.90;;;;;;5073945;28;20459;-81
2021/12/22 00:06:00;;;;;;;8.48;3.92;;;-12.10;99.90;;;;;;5073979;28;20390;-83
2021/12/22 00:08:29;;;;;;;8.20;3.92;;;-12.10;99.90;;;;;;5073998;28;20421;-82
2021/12/22 00:10:56;;;;;;;9.52;4.22;;;-12.00;99.90;;;;;;5056288;28;20440;-81
2021/12/22 00:13:24;;;;;;;8.32;3.60;;;-12.00;99.90;;;;;;5073903;28;20386;-83
2021/12/22 00:15:51;;;;;;;8.38;3.90;;;-12.10;99.90;;;;;;5073529;28;20461;-82
2021/12/22 00:18:19;;;;;;;8.15;3.70;;;-12.00;99.90;;;;;;5072669;28;20416;-82
2021/12/22 00:20:47;;;;;;;8.98;3.78;;;-12.00;99.90;;;;;;5072427;28;20630;-82
2021/12/22 00:23:14;;;;;;;9.65;4.40;;;-12.00;99.90;;;;;;5072400;28;20386;-82
2021/12/22 00:25:41;;;;;;;9.95;4.25;;;-12.00;99.90;;;;;;5073835;28;20433;-81
2021/12/22 00:28:09;;;;;;;9.13;4.18;;;-11.90;99.90;;;;;;5072360;28;20382;-82
2021/12/22 00:30:39;;;;;;;12.00;3.87;;;-11.90;99.90;;;;;;5072192;28;20412;-82
2021/12/22 00:33:09;;;;;;;7.93;4.25;;;-11.90;99.90;;;;;;5073606;28;20386;-82
2021/12/22 00:35:46;;;;;;;8.80;4.25;;;-11.90;99.90;;;;;;5073369;28;20401;-81
2021/12/22 00:38:17;;;;;;;8.88;4.00;;;-11.80;99.90;;;;;;5072498;28;20410;-82
2021/12/22 00:40:46;;;;;;;9.27;4.20;;;-11.90;99.90;;;;;;5072152;28;20394;-82
2021/12/22 00:43:15;;;;;;;9.15;4.38;;;-11.80;99.90;;;;;;5072938;28;20455;-83
2021/12/22 00:45:42;;;;;;;11.03;4.70;;;-11.80;99.90;;;;;;5073175;28;20482;-82
2021/12/22 00:48:11;;;;;;;8.25;3.83;;;-11.70;99.90;;;;;;5073143;28;20860;-82
2021/12/22 00:50:40;;;;;;;8.52;4.20;;;-11.80;99.90;;;;;;5071982;28;20437;-83
2021/12/22 00:53:07;;;;;;;7.80;3.75;;;-11.70;99.90;;;;;;5071753;28;20382;-82
2021/12/22 00:55:35;;;;;;;9.48;4.65;;;-11.70;99.90;;;;;;5071791;28;20386;-82
2021/12/22 00:58:03;;;;;;;8.13;4.10;;;-11.70;99.90;;;;;;5071992;28;20385;-82
2021/12/22 01:00:32;;;;;;;8.75;4.43;;;-11.70;99.90;;;;;;5071805;28;20409;-82
2021/12/22 01:03:00;;;;;;;9.27;4.20;;;-11.90;99.90;;;;;;5071861;28;20407;-83
2021/12/22 01:05:28;;;;;;;9.02;4.30;;;-11.80;99.90;;;;;;5071565;28;20803;-83
2021/12/22 01:07:55;;;;;;;8.27;3.72;;;-11.80;99.90;;;;;;5054936;28;20394;-82
2021/12/22 01:10:29;;;;;;;10.48;4.13;;;-12.00;99.90;;;;;;5071286;28;20390;-82
2021/12/22 01:12:59;;;;;;;9.07;3.88;;;-12.00;99.90;;;;;;5071367;28;20415;-82
2021/12/22 01:15:27;;;;;;;10.00;4.50;;;-12.00;99.90;;;;;;5072518;28;20459;-82
2021/12/22 01:18:02;;;;;;;8.57;4.50;;;-12.00;99.90;;;;;;5072595;28;20408;-82
2021/12/22 01:20:38;;;;;;;10.55;3.95;;;-11.80;99.90;;;;;;5071323;28;20473;-82
2021/12/22 01:23:07;;;;;;;10.18;4.70;;;-11.90;99.90;;;;;;5071073;28;20393;-82
2021/12/22 01:25:42;;;;;;;9.82;4.03;;;-11.80;99.90;;;;;;5071246;28;20868;-83
2021/12/22 01:28:11;;;;;;;9.27;4.95;;;-11.80;99.90;;;;;;5071320;28;20749;-82
2021/12/22 01:30:43;;;;;;;9.90;4.20;;;-11.70;99.90;;;;;;5054538;28;20947;-82
2021/12/22 01:33:12;;;;;;;9.97;4.80;;;-11.70;99.90;;;;;;5072407;28;20393;-82
2021/12/22 01:35:40;;;;;;;9.50;4.20;;;-11.70;99.90;;;;;;5072169;28;20378;-83
2021/12/22 01:38:08;;;;;;;8.57;4.38;;;-11.80;99.90;;;;;;5072406;28;20398;-81
2021/12/22 01:40:41;;;;;;;9.68;4.70;;;-11.70;99.90;;;;;;5072121;28;20873;-82
2021/12/22 01:43:09;;;;;;;10.57;4.63;;;-11.60;99.90;;;;;;5072137;28;20477;-82
2021/12/22 01:46:08;;;;;;;7.73;3.93;;;-11.60;99.90;;;;;;5054232;28;20416;-83
2021/12/22 01:51:44;;;;;;;8.40;3.95;;;-11.60;99.90;;;;;;5071961;28;20386;-83
2021/12/22 01:54:21;;;;;;;8.07;3.93;;;-11.60;99.90;;;;;;5071753;28;20386;-82
2021/12/22 01:56:51;;;;;;;10.70;4.50;;;-11.70;99.90;;;;;;5071392;28;20397;-80
2021/12/22 01:59:20;;;;;;;9.00;4.03;;;-11.60;99.90;;;;;;5071643;28;20420;-81
2021/12/22 02:01:48;;;;;;;8.55;4.13;;;-11.60;99.90;;;;;;5071713;28;20390;-81
2021/12/22 02:04:16;;;;;;;8.07;4.37;;;-11.60;99.90;;;;;;5070487;28;20807;-82
2021/12/22 02:06:45;;;;;;;11.05;4.68;;;-11.60;99.90;;;;;;5071738;28;20800;-82
2021/12/22 02:09:46;;;;;;;12.45;4.78;;;-11.50;99.90;;;;;;5071615;28;20390;-82
2021/12/22 02:12:14;;;;;;;11.18;4.55;;;-11.60;99.90;;;;;;5070550;28;20391;-83
2021/12/22 02:14:42;;;;;;;9.73;4.60;;;-11.60;99.90;;;;;;5071751;28;20477;-83
2021/12/22 02:17:11;;;;;;;10.18;4.55;;;-11.50;99.90;;;;;;5070275;28;20490;-83
2021/12/22 02:19:48;;;;;;;8.82;4.05;;;-11.60;99.90;;;;;;5069597;28;20401;-82
2021/12/22 02:22:17;;;;;;;8.15;3.83;;;-11.50;99.90;;;;;;5041666;28;20403;-83
2021/12/22 02:24:52;;;;;;;8.93;4.22;;;-11.50;99.90;;;;;;5041906;28;20384;-81
2021/12/22 02:27:29;;;;;;;11.18;4.38;;;-11.60;99.90;;;;;;5039057;28;20467;-81
2021/12/22 02:30:03;;;;;;;9.38;4.75;;;-11.60;99.90;;;;;;5031484;28;20451;-82
2021/12/22 02:35:03;;;;;;;8.70;4.23;;;-11.70;99.90;;;;;;5055528;28;20434;-83
2021/12/22 02:37:40;;;;;;;9.48;4.15;;;-11.70;99.90;;;;;;5030117;28;20389;-82
2021/12/22 02:40:12;;;;;;;8.00;4.03;;;-11.70;99.90;;;;;;5046889;28;20794;-82
2021/12/22 02:42:41;;;;;;;10.80;4.38;;;-11.70;99.90;;;;;;5031561;28;20385;-82
2021/12/22 02:45:11;;;;;;;9.10;4.50;;;-11.70;99.90;;;;;;5031244;28;20575;-82
2021/12/22 02:47:39;;;;;;;9.00;4.47;;;-11.70;99.90;;;;;;5013884;28;20413;-82
2021/12/22 02:50:08;;;;;;;8.63;4.50;;;-11.70;99.90;;;;;;5031260;28;20385;-81
2021/12/22 02:55:29;;;;;;;8.38;4.22;;;-11.70;99.90;;;;;;5030904;28;20390;-81
2021/12/22 02:58:01;;;;;;;9.27;4.68;;;-11.60;99.90;;;;;;5046706;28;20451;-81
2021/12/22 03:00:47;;;;;;;9.15;4.38;;;-11.60;99.90;;;;;;5031198;28;20419;-82
2021/12/22 03:05:44;;;;;;;8.73;4.30;;;-11.60;99.90;;;;;;5031120;28;20803;-83
2021/12/22 03:08:11;;;;;;;7.25;3.92;;;-11.50;99.90;;;;;;5050575;28;20822;-82
2021/12/22 03:10:38;;;;;;;8.13;4.10;;;-11.50;99.90;;;;;;5035016;28;20428;-82
2021/12/22 03:13:06;;;;;;;7.78;3.72;;;-11.50;99.90;;;;;;5050494;28;20396;-81
2021/12/22 03:15:33;;;;;;;11.25;4.55;;;-11.60;99.90;;;;;;5033537;28;20791;-82
2021/12/22 03:18:03;;;;;;;6.72;3.63;;;-11.50;99.90;;;;;;5035106;28;20421;-81
2021/12/22 03:20:31;;;;;;;8.00;3.70;;;-11.40;99.90;;;;;;5050364;28;20396;-83
2021/12/22 03:22:58;;;;;;;8.68;4.03;;;-11.40;99.90;;;;;;5035059;28;20401;-83
2021/12/22 03:25:27;;;;;;;8.10;4.07;;;-11.40;99.90;;;;;;5034891;28;20416;-83
2021/12/22 03:27:57;;;;;;;9.50;3.95;;;-11.30;99.90;;;;;;5033668;28;20945;-84
2021/12/22 03:30:26;;;;;;;9.75;4.93;;;-11.40;99.90;;;;;;5050121;28;20803;-82
2021/12/22 03:32:53;;;;;;;6.45;3.70;;;-11.30;99.90;;;;;;5034762;28;20887;-82
2021/12/22 03:35:22;;;;;;;8.80;3.92;;;-11.30;99.90;;;;;;5034882;28;20824;-82
2021/12/22 03:37:57;;;;;;;9.00;4.20;;;-11.30;99.90;;;;;;5033691;28;20452;-82
2021/12/22 03:40:26;;;;;;;8.13;3.83;;;-11.30;99.90;;;;;;5034478;28;20864;-83
2021/12/22 03:42:54;;;;;;;10.30;3.97;;;-11.40;99.90;;;;;;5049760;28;20894;-83
2021/12/22 03:45:21;;;;;;;9.50;4.18;;;-11.30;99.90;;;;;;5049679;28;20390;-83
2021/12/22 03:47:49;;;;;;;9.25;4.18;;;-11.30;99.90;;;;;;5034188;28;20903;-81
2021/12/22 03:50:17;;;;;;;7.35;3.92;;;-11.30;99.90;;;;;;5034249;28;20443;-82
2021/12/22 03:52:47;;;;;;;7.83;3.90;;;-11.30;99.90;;;;;;5034463;28;20381;-83
2021/12/22 03:55:15;;;;;;;9.55;4.20;;;-11.30;99.90;;;;;;5032942;28;20393;-82
2021/12/22 03:57:43;;;;;;;8.02;4.03;;;-11.30;99.90;;;;;;5034205;28;20399;-82
2021/12/22 04:00:12;;;;;;;9.40;4.35;;;-11.20;99.90;;;;;;5032827;28;20477;-82
2021/12/22 04:02:39;;;;;;;8.07;4.03;;;-11.20;99.90;;;;;;5034498;28;20443;-82
2021/12/22 04:05:08;;;;;;;8.15;3.90;;;-11.20;99.90;;;;;;5034079;28;20390;-82
2021/12/22 04:07:36;;;;;;;8.45;4.00;;;-11.30;99.90;;;;;;5049351;28;20409;-84
2021/12/22 04:10:19;;;;;;;6.90;3.40;;;-11.30;99.90;;;;;;5049360;28;20385;-84
2021/12/22 04:12:56;;;;;;;8.40;3.93;;;-11.40;99.90;;;;;;5034044;28;20397;-82
2021/12/22 04:15:27;;;;;;;7.95;3.75;;;-11.50;99.90;;;;;;5032412;28;20816;-83
2021/12/22 04:17:55;;;;;;;8.75;3.80;;;-11.30;99.90;;;;;;5048242;28;20393;-82
2021/12/22 04:20:22;;;;;;;7.88;3.85;;;-11.30;99.90;;;;;;5033685;28;20386;-83
2021/12/22 04:22:50;;;;;;;7.70;4.05;;;-11.40;99.90;;;;;;5033719;28;20389;-83
2021/12/22 04:25:21;;;;;;;8.20;3.83;;;-11.30;99.90;;;;;;5033692;28;20420;-83
2021/12/22 04:27:51;;;;;;;6.40;3.75;;;-11.30;99.90;;;;;;5033613;28;20958;-82
2021/12/22 04:30:20;;;;;;;8.02;4.03;;;-11.30;99.90;;;;;;5032257;28;20386;-82
2021/12/22 04:32:47;;;;;;;8.43;4.00;;;-11.30;99.90;;;;;;5033571;28;20485;-82
2021/12/22 04:35:15;;;;;;;9.30;3.93;;;-11.30;99.90;;;;;;5052055;28;20388;-83
2021/12/22 04:37:43;;;;;;;8.40;4.07;;;-11.30;99.90;;;;;;5053509;28;20424;-83
2021/12/22 04:40:12;;;;;;;8.40;3.72;;;-11.20;99.90;;;;;;5053195;28;20395;-82
2021/12/22 04:42:39;;;;;;;10.02;4.00;;;-11.20;99.90;;;;;;5052015;28;20389;-82
2021/12/22 04:45:08;;;;;;;7.75;3.28;;;-11.20;99.90;;;;;;5051928;28;20391;-82
2021/12/22 04:47:36;;;;;;;6.95;3.60;;;-11.10;99.90;;;;;;5051775;28;20486;-81
2021/12/22 04:50:10;;;;;;;6.72;3.40;;;-11.10;99.90;;;;;;5053226;28;20384;-82
2021/12/22 04:52:53;;;;;;;7.33;3.77;;;-11.10;99.90;;;;;;5051839;28;20400;-82
2021/12/22 04:55:22;;;;;;;6.30;3.42;;;-11.10;99.90;;;;;;5052006;28;20494;-82
2021/12/22 04:57:50;;;;;;;8.07;4.17;;;-11.10;99.90;;;;;;5051419;28;20400;-82
2021/12/22 05:00:17;;;;;;;8.00;4.32;;;-11.10;99.90;;;;;;5052302;28;20416;-81
2021/12/22 05:02:45;;;;;;;7.60;3.72;;;-10.90;99.90;;;;;;5049920;28;20388;-83
2021/12/22 05:05:13;;;;;;;9.55;3.72;;;-10.90;99.90;;;;;;5051831;28;20391;-82
2021/12/22 05:07:42;;;;;;;8.23;3.78;;;-11.00;99.90;;;;;;5054717;28;20930;-82
2021/12/22 05:10:10;;;;;;;7.70;3.88;;;-11.00;99.90;;;;;;5032910;28;20417;-83
2021/12/22 05:12:37;;;;;;;7.82;3.92;;;-11.00;99.90;;;;;;5032621;28;20420;-82
2021/12/22 05:15:05;;;;;;;9.10;4.00;;;-10.90;99.90;;;;;;5047577;28;20417;-81
2021/12/22 05:20:07;;;;;;;9.75;4.35;;;-10.80;99.90;;;;;;5032650;28;20401;-82
2021/12/22 05:22:35;;;;;;;7.78;3.85;;;-10.70;99.90;;;;;;5038227;28;20403;-81
2021/12/22 05:25:08;;;;;;;7.07;3.50;;;-10.80;99.90;;;;;;5044926;28;20803;-82
2021/12/22 05:27:36;;;;;;;7.28;3.90;;;-10.80;99.90;;;;;;5032113;28;20409;-82
2021/12/22 05:30:07;;;;;;;8.82;3.65;;;-10.80;99.90;;;;;;5044161;28;20391;-82
2021/12/22 05:32:36;;;;;;;9.15;3.85;;;-10.70;99.90;;;;;;5052300;28;20388;-82
2021/12/22 05:35:07;;;;;;;7.82;3.67;;;-10.70;99.90;;;;;;5064593;28;20390;-82
2021/12/22 05:37:36;;;;;;;9.30;4.13;;;-10.70;99.90;;;;;;5035018;28;20395;-81
2021/12/22 05:40:06;;;;;;;9.48;4.03;;;-10.70;99.90;;;;;;5052111;28;20384;-81
2021/12/22 05:42:34;;;;;;;7.63;3.20;;;-10.60;99.90;;;;;;5067399;28;20391;-83
2021/12/22 05:45:02;;;;;;;8.82;4.15;;;-10.60;99.90;;;;;;5051163;28;20755;-82
2021/12/22 05:47:29;;;;;;;9.10;4.65;;;-10.60;99.90;;;;;;5030971;28;20433;-81
2021/12/22 05:49:57;;;;;;;7.35;3.75;;;-10.60;99.90;;;;;;5047363;28;20397;-81
2021/12/22 05:52:24;;;;;;;8.18;3.72;;;-10.70;99.90;;;;;;5030803;28;20887;-82
2021/12/22 05:54:52;;;;;;;9.40;4.75;;;-10.70;99.90;;;;;;5039037;28;20392;-82
2021/12/22 05:57:19;;;;;;;8.73;4.27;;;-10.60;99.90;;;;;;5051867;28;20388;-82
2021/12/22 05:59:47;;;;;;;10.45;5.15;;;-10.60;99.90;;;;;;5049343;28;20438;-82
2021/12/22 06:02:14;;;;;;;8.30;3.75;;;-10.60;99.90;;;;;;5067307;28;20466;-82
2021/12/22 06:04:42;;;;;;;8.25;3.35;;;-10.70;99.90;;;;;;5064985;28;20384;-82
2021/12/22 06:07:10;;;;;;;8.83;3.73;;;-10.80;99.90;;;;;;5050290;28;20441;-82
2021/12/22 06:09:37;;;;;;;7.93;4.57;;;-10.80;99.90;;;;;;5051678;28;20517;-82
2021/12/22 06:12:05;;;;;;;11.63;4.82;;;-10.60;99.90;;;;;;5041581;28;20962;-83
2021/12/22 06:14:32;;;;;;;11.25;4.53;;;-10.60;99.90;;;;;;5047157;28;20432;-81
2021/12/22 06:17:00;;;;;;;8.73;3.58;;;-10.50;99.90;;;;;;5036665;28;20395;-83
2021/12/22 06:19:27;;;;;;;9.63;4.22;;;-10.50;99.90;;;;;;5051492;28;20793;-82
2021/12/22 06:21:55;;;;;;;7.32;3.75;;;-10.60;99.90;;;;;;5050314;28;20731;-83
2021/12/22 06:24:22;;;;;;;8.95;4.32;;;-10.70;99.90;;;;;;5051453;28;20785;-81
2021/12/22 06:26:50;;;;;;;8.40;4.13;;;-10.70;99.90;;;;;;5050069;28;20878;-82
2021/12/22 06:29:17;;;;;;;8.60;4.10;;;-10.60;99.90;;;;;;5050039;28;20387;-82
2021/12/22 06:31:45;;;;;;;8.73;4.10;;;-10.50;99.90;;;;;;5051315;28;20842;-82
2021/12/22 06:34:13;;;;;;;7.80;3.50;;;-10.50;99.90;;;;;;5066565;28;20712;-82
2021/12/22 06:36:41;;;;;;;8.52;3.55;;;-10.50;99.90;;;;;;5066703;28;20410;-82
2021/12/22 06:39:08;;;;;;;7.85;3.53;;;-10.60;99.90;;;;;;5050400;28;20473;-82
2021/12/22 06:41:36;;;;;;;9.50;4.20;;;-10.70;99.90;;;;;;5049797;28;20445;-82
2021/12/22 06:44:05;;;;;;;6.80;3.53;;;-10.60;99.90;;;;;;5051244;28;20471;-82
2021/12/22 06:46:33;;;;;;;7.38;3.60;;;-10.60;99.90;;;;;;5051205;28;20392;-82
2021/12/22 06:49:01;;;;;;;10.10;4.00;;;-10.70;99.90;;;;;;5051097;28;20431;-83
2021/12/22 06:51:28;;;;;;;7.13;3.95;;;-10.60;99.90;;;;;;5051148;28;20419;-82
2021/12/22 06:53:56;;;;;;;7.27;4.10;;;-10.60;99.90;;;;;;5049865;28;20387;-83
2021/12/22 06:56:23;;;;;;;9.57;3.80;;;-10.50;99.90;;;;;;5050941;28;20858;-81
2021/12/22 06:58:51;;;;;;;8.23;3.92;;;-10.50;99.90;;;;;;5030099;28;20762;-83
2021/12/22 07:01:20;;;;;;;9.70;3.72;;;-10.50;99.90;;;;;;5058821;28;20395;-82
2021/12/22 07:03:48;;;;;;;8.10;3.80;;;-10.50;99.90;;;;;;5046449;28;20382;-82
2021/12/22 07:06:16;;;;;;;10.10;4.03;;;-10.40;99.90;;;;;;5046496;28;20488;-83
2021/12/22 07:08:44;;;;;;;8.90;4.00;;;-10.40;99.90;;;;;;5031108;28;20402;-83
2021/12/22 07:11:13;;;;;;;8.52;3.70;;;-10.40;99.90;;;;;;5029805;28;20393;-82
2021/12/22 07:13:40;;;;;;;7.45;3.83;;;-10.40;99.90;;;;;;5029804;28;20417;-82
2021/12/22 07:16:08;;;;;;;8.80;3.93;;;-10.30;99.90;;;;;;5030764;28;20397;-83
2021/12/22 07:18:35;;;;;;;7.47;3.45;;;-10.30;99.90;;;;;;5030922;28;20481;-82
2021/12/22 07:21:03;;;;;;;7.90;3.80;;;-10.40;99.90;;;;;;5034874;28;20401;-83
2021/12/22 07:23:31;;;;;;;7.15;3.47;;;-10.40;99.90;;;;;;5039694;28;20388;-82
2021/12/22 07:25:58;;;;;;;7.88;3.80;;;-10.40;99.90;;;;;;5046240;28;20423;-82
2021/12/22 07:28:26;;;;;;;8.00;3.80;;;-10.50;99.90;;;;;;5046171;28;20421;-82
2021/12/22 07:30:54;;;;;;;7.88;3.47;;;-10.40;99.90;;;;;;5050683;28;20388;-82
2021/12/22 07:33:21;;;;;;;8.20;3.80;;;-10.50;99.90;;;;;;5049569;28;20514;-82
2021/12/22 07:36:00;;;;;;;9.27;3.85;;;-10.50;99.90;;;;;;5042947;28;20393;-82
2021/12/22 07:38:41;;;;;;;8.27;3.85;;;-10.50;99.90;;;;;;5045660;28;20756;-83
2021/12/22 07:41:09;;;;;;;7.57;3.60;;;-10.50;99.90;;;;;;5030940;28;20443;-82
2021/12/22 07:43:37;;;;;;;8.20;3.90;;;-10.60;99.90;;;;;;5036892;28;20890;-81
2021/12/22 07:46:07;;;;;;;7.37;3.10;;;-10.60;99.90;;;;;;5066104;28;20395;-81
2021/12/22 07:48:36;;;;;;;12.20;3.97;;;-10.80;99.90;;;;;;5049563;28;20929;-82
2021/12/22 07:51:04;;;;;;;8.07;3.40;;;-10.70;99.90;;;;;;5049801;28;20731;-83
2021/12/22 07:53:31;;;;;;;8.30;4.07;;;-10.80;99.90;;;;;;5034188;28;20388;-81
2021/12/22 07:55:59;;;;;;;9.77;3.40;;;-10.70;99.90;;;;;;5052837;28;20781;-82
2021/12/22 07:58:27;;;;;;;7.55;3.70;;;-10.70;99.90;;;;;;5052687;28;20403;-82
2021/12/22 08:00:56;;;;;;;7.28;3.45;;;-10.70;99.90;;;;;;5048957;28;20848;-82
2021/12/22 08:03:25;;;;;;;9.07;3.72;;;-10.80;99.90;;;;;;5034018;28;20763;-82
2021/12/22 08:06:11;;;;;;;7.90;3.28;;;-10.70;99.90;;;;;;5049574;28;20408;-83
2021/12/22 08:08:39;;;;;;;6.70;3.38;;;-10.70;99.90;;;;;;5033924;28;20973;-81
2021/12/22 08:11:07;;;;;;;8.88;4.10;;;-10.70;99.90;;;;;;5049491;28;20387;-82
2021/12/22 08:13:35;;;;;;;7.55;4.10;;;-10.70;99.90;;;;;;5053884;28;20388;-83
2021/12/22 08:16:03;;;;;;;9.23;4.07;;;-10.60;99.90;;;;;;5052171;28;20785;-83
2021/12/22 08:18:30;;;;;;;8.83;3.43;;;-10.50;99.90;;;;;;5068992;28;20906;-81
2021/12/22 08:20:58;;;;;;;7.72;3.80;;;-10.50;99.90;;;;;;5052918;28;20445;-84
2021/12/22 08:23:31;;;;;;;7.13;3.30;;;-10.50;99.90;;;;;;5052322;28;20402;-83
2021/12/22 08:25:59;;;;;;;9.35;3.33;;;-10.60;99.90;;;;;;5056599;28;20746;-82
2021/12/22 08:28:27;;;;;;;6.43;3.00;;;-10.50;99.90;;;;;;5052239;28;20446;-82
2021/12/22 08:30:54;;;;;;;7.63;3.95;;;-10.50;99.90;;;;;;5053564;28;20442;-82
2021/12/22 08:33:25;;;;;;;7.43;3.33;;;-10.50;99.90;;;;;;5068777;28;20388;-82
2021/12/22 08:38:50;;;;;;;7.82;3.78;;;-10.50;99.90;;;;;;5038846;28;20471;-82
2021/12/22 08:41:22;;;;;;;6.90;3.57;;;-10.40;99.90;;;;;;5033382;28;20933;-82
2021/12/22 08:43:51;;;;;;;6.60;3.33;;;-10.40;99.90;;;;;;5043480;28;20401;-83
2021/12/22 08:46:19;;;;;;;8.10;3.92;;;-10.30;99.90;;;;;;5072846;28;20394;-83
2021/12/22 08:48:47;;;;;;;5.95;3.38;;;-10.30;99.90;;;;;;5071839;28;20481;-82
2021/12/22 08:51:15;;;;;;;6.80;3.20;;;-10.30;99.90;;;;;;5073268;28;20860;-83
2021/12/22 08:53:43;;;;;;;7.93;3.17;;;-10.30;99.90;;;;;;5073436;28;20440;-82
2021/12/22 08:56:11;;;;;;;9.18;3.47;;;-10.20;99.90;;;;;;5073113;28;20888;-83
2021/12/22 08:58:38;;;;;;;8.38;3.50;;;-10.20;99.90;;;;;;5073142;28;20899;-83
2021/12/22 09:01:06;;;;;;;8.38;3.20;;;-10.20;99.90;;;;;;5071964;28;20498;-83
2021/12/22 09:03:35;;;;;;;6.97;3.30;;;-10.10;99.90;;;;;;5073077;28;20452;-83
2021/12/22 09:06:03;;;;;;;8.68;3.22;;;-10.10;99.90;;;;;;5072852;28;20480;-83
2021/12/22 09:08:31;;;;;;;8.27;3.45;;;-10.00;99.90;;;;;;5072964;28;20489;-83
2021/12/22 09:10:58;;;;;;;7.22;3.15;;;-10.00;99.90;;;;;;5073057;28;20382;-84
2021/12/22 09:13:26;;;;;;;6.83;3.30;;;-10.00;99.90;;;;;;5072829;28;20897;-81
2021/12/22 09:15:54;;;;;;;7.72;3.28;;;-10.00;99.90;;;;;;5071261;28;20429;-81
2021/12/22 09:18:22;;;;;;;6.47;3.20;;;-10.00;99.90;;;;;;5071222;28;20398;-82
2021/12/22 09:20:49;;;;;;;8.18;3.58;;;-10.00;99.90;;;;;;5072585;28;20394;-82
2021/12/22 09:23:17;;;;;;;7.40;3.00;;;-9.90;99.90;;;;;;5071739;28;20386;-84
2021/12/22 09:25:45;;;;;;;6.55;2.92;;;-9.90;99.90;;;;;;5071340;28;20386;-82
2021/12/22 09:28:13;;;;;;;8.48;3.22;;;-9.90;99.90;;;;;;5072654;28;20456;-82
2021/12/22 09:30:45;;;;;;;9.60;3.85;;;-9.80;99.90;;;;;;5071299;28;20485;-83
2021/12/22 09:33:16;;;;;;;7.40;3.00;;;-9.80;99.90;;;;;;5072341;28;20390;-83
2021/12/22 09:35:46;;;;;;;8.25;3.25;;;-9.80;99.90;;;;;;5072384;28;20388;-83
2021/12/22 09:38:14;;;;;;;6.50;3.53;;;-9.80;99.90;;;;;;5072308;28;20481;-82
2021/12/22 09:40:42;;;;;;;8.60;4.22;;;-9.80;99.90;;;;;;5072325;28;20864;-83
2021/12/22 09:43:09;;;;;;;7.30;3.63;;;-9.80;99.90;;;;;;5072323;28;20447;-84
2021/12/22 09:45:43;;;;;;;7.22;3.20;;;-9.70;99.90;;;;;;5072259;28;20864;-82
2021/12/22 09:53:18;;;;;;;8.90;4.15;;;-9.60;99.90;;;;;;5072107;28;20448;-84
2021/12/22 09:55:47;;;;;;;7.15;3.45;;;-9.60;99.90;;;;;;5072186;28;20372;-84
2021/12/22 09:58:15;;;;;;;9.80;3.50;;;-9.60;99.90;;;;;;5071935;28;20400;-83
2021/12/22 10:00:45;;;;;;;8.85;3.42;;;-9.60;99.90;;;;;;5070697;28;20393;-82
2021/12/22 10:03:13;;;;;;;7.07;3.37;;;-9.60;99.90;;;;;;5070762;28;20755;-82
2021/12/22 10:05:43;;;;;;;7.80;3.57;;;-9.50;99.90;;;;;;5070783;28;20394;-84
2021/12/22 10:08:20;;;;;;;6.68;3.33;;;-9.40;99.90;;;;;;5070601;28;20433;-83
2021/12/22 10:10:51;;;;;;;6.75;3.55;;;-9.40;99.90;;;;;;5071745;28;20401;-83
2021/12/22 10:13:22;;;;;;;7.88;3.30;;;-9.30;99.90;;;;;;5070483;28;20477;-83
2021/12/22 10:15:50;;;;;;;8.00;3.45;;;-9.20;99.90;;;;;;5069663;28;20481;-83
2021/12/22 10:18:26;;;;;;;6.30;3.38;;;-9.20;99.90;;;;;;5071872;28;20856;-83
2021/12/22 10:21:13;;;;;;;8.18;3.47;;;-9.20;99.90;;;;;;5070584;28;20389;-83
2021/12/22 10:23:49;;;;;;;7.72;3.30;;;-9.10;99.90;;;;;;5071550;28;20389;-82
2021/12/22 10:26:20;;;;;;;5.38;3.03;;;-9.10;99.90;;;;;;5070670;28;20390;-84
2021/12/22 10:29:07;;;;;;;7.83;3.60;;;-9.00;99.90;;;;;;5071569;28;20937;-83
2021/12/22 10:31:41;;;;;;;7.13;2.92;;;-8.90;99.90;;;;;;5070273;28;20405;-83
2021/12/22 10:34:15;;;;;;;6.90;3.40;;;-8.90;99.90;;;;;;5071584;28;20382;-83
2021/12/22 10:36:54;;;;;;;8.55;3.40;;;-8.80;99.90;;;;;;5071479;28;20480;-82
2021/12/22 10:39:29;;;;;;;4.93;3.20;;;-8.90;99.90;;;;;;5071465;28;20436;-82
2021/12/22 10:42:07;;;;;;;6.78;3.30;;;-8.90;99.90;;;;;;5071486;28;20396;-83
2021/12/22 10:44:40;;;;;;;5.90;3.10;;;-9.00;99.90;;;;;;5070302;28;20386;-83
2021/12/22 10:47:32;;;;;;;9.32;3.80;;;-9.00;99.90;;;;;;5071292;28;20397;-83
2021/12/22 10:50:07;;;;;;;7.63;3.55;;;-8.90;99.90;;;;;;5070190;28;20435;-83
2021/12/22 10:52:35;;;;;;;7.22;3.25;;;-8.80;99.90;;;;;;5053415;28;20393;-83
2021/12/22 10:55:08;;;;;;;7.20;3.40;;;-8.90;99.90;;;;;;5071261;28;20385;-82
2021/12/22 10:57:43;;;;;;;6.65;3.03;;;-9.00;99.90;;;;;;5071225;28;20902;-83
2021/12/22 11:00:15;;;;;;;7.35;3.15;;;-8.90;99.90;;;;;;5070174;28;20473;-82
2021/12/22 11:02:50;;;;;;;7.90;3.38;;;-8.80;99.90;;;;;;5070038;28;20863;-82
2021/12/22 11:05:28;;;;;;;8.05;3.55;;;-8.70;99.90;;;;;;5071143;28;20388;-82
2021/12/22 11:07:57;;;;;;;6.55;2.97;;;-8.70;99.90;;;;;;5071168;28;20404;-83
2021/12/22 11:10:30;;;;;;;8.43;3.23;;;-8.60;99.90;;;;;;5070999;28;20386;-82
2021/12/22 11:13:03;;;;;;;5.60;2.90;;;-8.60;99.90;;;;;;5071211;28;20378;-84
2021/12/22 11:15:40;;;;;;;6.05;3.20;;;-8.70;99.90;;;;;;5071284;28;20876;-83
2021/12/22 11:18:26;;;;;;;6.63;3.15;;;-8.70;99.90;;;;;;5069937;28;20800;-84
2021/12/22 11:21:33;;;;;;;6.93;3.00;;;-8.50;99.90;;;;;;5069726;28;20400;-83
2021/12/22 11:24:01;;;;;;;5.80;3.15;;;-8.40;99.90;;;;;;5012397;28;20401;-84
2021/12/22 11:26:29;;;;;;;7.22;3.28;;;-8.30;99.90;;;;;;5064394;28;20920;-83
2021/12/22 11:28:57;;;;;;;4.90;2.70;;;-8.30;99.90;;;;;;5074166;28;20398;-82
2021/12/22 11:31:26;;;;;;;6.97;3.13;;;-8.30;99.90;;;;;;5074730;28;20772;-82
2021/12/22 11:33:55;;;;;;;5.50;2.80;;;-8.30;99.90;;;;;;5074657;28;20389;-83
2021/12/22 11:36:23;;;;;;;5.50;2.78;;;-8.20;99.90;;;;;;5074452;28;20444;-83
2021/12/22 11:38:51;;;;;;;5.60;2.63;;;-8.10;99.90;;;;;;5073247;28;20862;-82
2021/12/22 11:41:20;;;;;;;7.35;2.90;;;-8.20;99.90;;;;;;5073456;28;20424;-84
2021/12/22 11:43:48;;;;;;;6.10;2.90;;;-8.20;99.90;;;;;;5074772;28;20417;-83
2021/12/22 11:46:16;;;;;;;7.43;2.88;;;-8.30;99.90;;;;;;5073369;28;20390;-83
2021/12/22 11:48:48;;;;;;;6.65;3.10;;;-8.40;99.90;;;;;;5073237;28;20405;-84
2021/12/22 11:51:27;;;;;;;7.38;2.97;;;-8.40;99.90;;;;;;5059423;28;20441;-83
2021/12/22 11:54:15;;;;;;;6.82;3.05;;;-8.40;99.90;;;;;;5033256;28;20416;-82
2021/12/22 11:56:42;;;;;;;6.93;3.50;;;-8.40;99.90;;;;;;5033348;28;20397;-84
2021/12/22 11:59:25;;;;;;;7.65;3.55;;;-8.40;99.90;;;;;;5034202;28;20397;-83
2021/12/22 12:02:23;;;;;;;7.30;3.20;;;-8.40;99.90;;;;;;5048364;28;20418;-84
2021/12/22 12:04:54;;;;;;;9.65;3.45;;;-8.30;99.90;;;;;;5052914;28;20399;-83
2021/12/22 12:07:49;;;;;;;7.82;3.25;;;-8.20;99.90;;;;;;5052873;28;20445;-84
2021/12/22 12:10:49;;;;;;;7.25;3.10;;;-8.20;99.90;;;;;;5053891;28;20487;-82
2021/12/22 12:13:33;;;;;;;6.70;3.15;;;-8.10;99.90;;;;;;5053882;28;20419;-82
2021/12/22 12:22:09;;;;;;;9.25;3.10;;;-8.10;99.90;;;;;;5053761;28;20395;-83
2021/12/22 12:25:02;;;;;;;6.93;3.10;;;-8.00;99.90;;;;;;5053777;28;20384;-83
2021/12/22 12:27:30;;;;;;;8.50;3.70;;;-8.00;99.90;;;;;;5053785;28;20396;-83
2021/12/22 12:30:22;;;;;;;6.90;3.33;;;-8.00;99.90;;;;;;5053771;28;20396;-83
2021/12/22 12:33:01;;;;;;;7.10;3.20;;;-8.10;99.90;;;;;;5052426;28;20447;-83
2021/12/22 12:35:32;;;;;;;6.83;3.17;;;-8.20;99.90;;;;;;5052004;28;20402;-83
2021/12/22 12:37:59;;;;;;;7.60;3.47;;;-8.30;99.90;;;;;;5053545;28;20384;-84
2021/12/22 12:40:55;;;;;;;7.57;3.55;;;-8.30;99.90;;;;;;5051296;28;20395;-83
2021/12/22 12:43:44;;;;;;;6.15;3.25;;;-8.20;99.90;;;;;;5051778;28;20396;-83
2021/12/22 12:48:50;;;;;;;9.95;4.07;;;-8.30;99.90;;;;;;5052781;28;20470;-82
2021/12/22 12:51:26;;;;;;;10.57;3.80;;;-8.30;99.90;;;;;;5051955;28;20471;-84
2021/12/22 12:53:57;;;;;;;11.65;3.83;;;-8.30;99.90;;;;;;5053485;28;20410;-84
2021/12/22 12:56:36;;;;;;;8.70;3.78;;;-8.40;99.90;;;;;;5051613;28;20392;-83
2021/12/22 12:59:25;;;;;;;7.88;3.88;;;-8.40;99.90;;;;;;5051649;28;20442;-82
2021/12/22 13:01:52;;;;;;;7.77;3.43;;;-8.40;99.90;;;;;;5051743;28;20391;-83
2021/12/22 13:04:23;;;;;;;8.25;3.65;;;-8.30;99.90;;;;;;5044531;28;20406;-83
2021/12/22 13:06:51;;;;;;;7.88;3.22;;;-8.30;99.90;;;;;;5032320;28;20407;-82
2021/12/22 13:09:30;;;;;;;9.25;3.75;;;-8.50;99.90;;;;;;5041545;28;20483;-82
2021/12/22 13:12:34;;;;;;;7.35;3.78;;;-8.50;99.90;;;;;;5030606;28;20431;-83
2021/12/22 13:18:20;;;;;;;8.32;3.40;;;-8.40;99.90;;;;;;5044695;28;20554;-84
2021/12/22 13:20:49;;;;;;;7.45;3.50;;;-8.40;99.90;;;;;;5031496;28;20390;-83
2021/12/22 13:23:20;;;;;;;9.57;4.13;;;-8.30;99.90;;;;;;5047576;28;20471;-84
2021/12/22 13:25:50;;;;;;;9.30;3.90;;;-8.30;99.90;;;;;;5032688;28;20405;-83
2021/12/22 13:28:20;;;;;;;12.43;4.20;;;-8.30;99.90;;;;;;5031048;28;20397;-83
2021/12/22 13:30:52;;;;;;;9.35;4.28;;;-8.40;99.90;;;;;;5047969;28;20417;-83